sensor_id;sensor_type;location;lat;lon;timestamp;pressure;altitude;pressure_sealevel;temperature;humidity
55066;BME280;40964;42.114;24.220;2023-12-22T00:01:32;96281.91;;;1.93;81.08
55066;BME280;40964;42.114;24.220;2023-12-22T00:03:59;96285.47;;;2.05;79.57
55066;BME280;40964;42.114;24.220;2023-12-22T00:06:25;96289.66;;;2.13;79.89
55066;BME280;40964;42.114;24.220;2023-12-22T00:08:50;96285.88;;;2.15;79.98
55066;BME280;40964;42.114;24.220;2023-12-22T00:11:15;96287.25;;;2.24;79.85
55066;BME280;40964;42.114;24.220;2023-12-22T00:13:41;96288.69;;;2.07;80.02
55066;BME280;40964;42.114;24.220;2023-12-22T00:16:06;96305.44;;;2.11;80.40
55066;BME280;40964;42.114;24.220;2023-12-22T00:18:32;96316.19;;;2.15;79.93
55066;BME280;40964;42.114;24.220;2023-12-22T00:20:57;96303.44;;;2.13;80.50
55066;BME280;40964;42.114;24.220;2023-12-22T00:23:23;96304.63;;;2.11;79.95
55066;BME280;40964;42.114;24.220;2023-12-22T00:25:48;96303.84;;;2.10;79.83
55066;BME280;40964;42.114;24.220;2023-12-22T00:28:14;96287.88;;;2.13;79.51
55066;BME280;40964;42.114;24.220;2023-12-22T00:30:39;96288.25;;;2.23;80.51
55066;BME280;40964;42.114;24.220;2023-12-22T00:33:05;96282.28;;;2.30;79.44
55066;BME280;40964;42.114;24.220;2023-12-22T00:35:30;96286.84;;;2.41;78.77
55066;BME280;40964;42.114;24.220;2023-12-22T00:37:56;96282.66;;;2.40;79.32
55066;BME280;40964;42.114;24.220;2023-12-22T00:40:21;96284.66;;;2.31;78.88
55066;BME280;40964;42.114;24.220;2023-12-22T00:42:47;96276.09;;;2.24;80.02
55066;BME280;40964;42.114;24.220;2023-12-22T00:45:12;96282.28;;;2.30;80.21
55066;BME280;40964;42.114;24.220;2023-12-22T00:47:37;96268.72;;;2.27;80.14
55066;BME280;40964;42.114;24.220;2023-12-22T00:50:03;96259.56;;;2.25;80.99
55066;BME280;40964;42.114;24.220;2023-12-22T00:52:30;96269.72;;;2.26;81.73
55066;BME280;40964;42.114;24.220;2023-12-22T00:54:55;96276.50;;;2.27;81.20
55066;BME280;40964;42.114;24.220;2023-12-22T00:57:21;96278.28;;;2.27;81.83
55066;BME280;40964;42.114;24.220;2023-12-22T00:59:46;96271.69;;;2.24;82.05
55066;BME280;40964;42.114;24.220;2023-12-22T01:02:16;96273.09;;;2.27;81.90
55066;BME280;40964;42.114;24.220;2023-12-22T01:04:42;96261.13;;;2.19;81.77
55066;BME280;40964;42.114;24.220;2023-12-22T01:07:08;96262.16;;;2.25;81.73
55066;BME280;40964;42.114;24.220;2023-12-22T01:09:34;96255.94;;;2.33;81.16
55066;BME280;40964;42.114;24.220;2023-12-22T01:12:00;96256.13;;;2.38;80.01
55066;BME280;40964;42.114;24.220;2023-12-22T01:14:28;96252.53;;;2.39;80.66
55066;BME280;40964;42.114;24.220;2023-12-22T01:16:54;96248.34;;;2.38;80.47
55066;BME280;40964;42.114;24.220;2023-12-22T01:19:19;96261.53;;;2.43;80.29
55066;BME280;40964;42.114;24.220;2023-12-22T01:21:45;96258.09;;;2.42;80.56
55066;BME280;40964;42.114;24.220;2023-12-22T01:24:10;96244.31;;;2.48;80.60
55066;BME280;40964;42.114;24.220;2023-12-22T01:26:35;96220.59;;;2.45;80.66
55066;BME280;40964;42.114;24.220;2023-12-22T01:29:01;96234.16;;;2.47;80.94
55066;BME280;40964;42.114;24.220;2023-12-22T01:31:26;96224.16;;;2.57;79.98
55066;BME280;40964;42.114;24.220;2023-12-22T01:33:52;96221.53;;;2.57;80.19
55066;BME280;40964;42.114;24.220;2023-12-22T01:36:18;96217.94;;;2.58;80.07
55066;BME280;40964;42.114;24.220;2023-12-22T01:38:43;96210.53;;;2.68;79.91
55066;BME280;40964;42.114;24.220;2023-12-22T01:41:08;96207.31;;;2.79;78.90
55066;BME280;40964;42.114;24.220;2023-12-22T01:43:34;96205.66;;;2.92;78.02
55066;BME280;40964;42.114;24.220;2023-12-22T01:46:00;96192.44;;;3.00;77.87
55066;BME280;40964;42.114;24.220;2023-12-22T01:48:26;96183.84;;;2.99;77.51
55066;BME280;40964;42.114;24.220;2023-12-22T01:50:53;96190.63;;;3.00;77.11
55066;BME280;40964;42.114;24.220;2023-12-22T01:53:20;96188.00;;;3.07;77.03
55066;BME280;40964;42.114;24.220;2023-12-22T01:55:49;96184.38;;;3.15;77.22
55066;BME280;40964;42.114;24.220;2023-12-22T01:58:16;96186.53;;;3.18;76.68
55066;BME280;40964;42.114;24.220;2023-12-22T02:00:42;96127.53;;;2.93;76.41
55066;BME280;40964;42.114;24.220;2023-12-22T02:03:08;96164.31;;;3.22;77.03
55066;BME280;40964;42.114;24.220;2023-12-22T02:05:34;96175.69;;;3.27;75.88
55066;BME280;40964;42.114;24.220;2023-12-22T02:08:00;96177.22;;;3.35;75.44
55066;BME280;40964;42.114;24.220;2023-12-22T02:10:25;96155.66;;;3.34;75.63
55066;BME280;40964;42.114;24.220;2023-12-22T02:12:50;96149.34;;;3.49;75.44
55066;BME280;40964;42.114;24.220;2023-12-22T02:15:16;96142.31;;;3.49;76.03
55066;BME280;40964;42.114;24.220;2023-12-22T02:17:58;96134.38;;;3.44;75.01
55066;BME280;40964;42.114;24.220;2023-12-22T02:20:24;96147.25;;;3.57;74.96
55066;BME280;40964;42.114;24.220;2023-12-22T02:22:53;96155.00;;;3.64;75.37
55066;BME280;40964;42.114;24.220;2023-12-22T02:25:19;96149.75;;;3.70;74.29
55066;BME280;40964;42.114;24.220;2023-12-22T02:27:49;96146.28;;;3.77;73.78
55066;BME280;40964;42.114;24.220;2023-12-22T02:30:28;96148.28;;;3.81;73.71
55066;BME280;40964;42.114;24.220;2023-12-22T02:32:59;96152.91;;;3.79;74.15
55066;BME280;40964;42.114;24.220;2023-12-22T02:35:27;96150.56;;;3.71;75.19
55066;BME280;40964;42.114;24.220;2023-12-22T02:37:56;96138.19;;;3.66;74.97
55066;BME280;40964;42.114;24.220;2023-12-22T02:40:23;96145.84;;;3.61;75.47
55066;BME280;40964;42.114;24.220;2023-12-22T02:42:51;96171.38;;;3.39;77.46
55066;BME280;40964;42.114;24.220;2023-12-22T02:45:18;96175.56;;;3.16;76.56
55066;BME280;40964;42.114;24.220;2023-12-22T02:47:44;96173.44;;;3.06;76.99
55066;BME280;40964;42.114;24.220;2023-12-22T02:50:12;96170.28;;;2.97;77.95
55066;BME280;40964;42.114;24.220;2023-12-22T02:52:38;96164.47;;;2.95;78.40
55066;BME280;40964;42.114;24.220;2023-12-22T02:55:04;96153.06;;;2.96;78.90
55066;BME280;40964;42.114;24.220;2023-12-22T02:57:30;96157.44;;;3.02;78.76
55066;BME280;40964;42.114;24.220;2023-12-22T02:59:56;96149.66;;;3.02;79.16
55066;BME280;40964;42.114;24.220;2023-12-22T03:02:21;96145.59;;;3.13;78.31
55066;BME280;40964;42.114;24.220;2023-12-22T03:04:47;96145.59;;;3.13;78.69
55066;BME280;40964;42.114;24.220;2023-12-22T03:07:13;96147.19;;;3.14;78.10
55066;BME280;40964;42.114;24.220;2023-12-22T03:09:39;96146.94;;;3.22;78.13
55066;BME280;40964;42.114;24.220;2023-12-22T03:12:08;96147.31;;;3.26;78.13
55066;BME280;40964;42.114;24.220;2023-12-22T03:14:34;96142.06;;;3.32;78.01
55066;BME280;40964;42.114;24.220;2023-12-22T03:17:04;96153.41;;;3.38;77.83
55066;BME280;40964;42.114;24.220;2023-12-22T03:19:30;96141.22;;;3.38;77.64
55066;BME280;40964;42.114;24.220;2023-12-22T03:21:56;96128.44;;;3.37;78.50
55066;BME280;40964;42.114;24.220;2023-12-22T03:24:25;96133.97;;;3.47;77.47
55066;BME280;40964;42.114;24.220;2023-12-22T03:26:51;96131.53;;;3.52;77.00
55066;BME280;40964;42.114;24.220;2023-12-22T03:29:17;96129.06;;;3.57;78.09
55066;BME280;40964;42.114;24.220;2023-12-22T03:31:43;96131.03;;;3.62;77.90
55066;BME280;40964;42.114;24.220;2023-12-22T03:34:09;96137.00;;;3.69;77.40
55066;BME280;40964;42.114;24.220;2023-12-22T03:36:35;96117.41;;;3.66;77.61
55066;BME280;40964;42.114;24.220;2023-12-22T03:39:01;96142.50;;;3.79;77.18
55066;BME280;40964;42.114;24.220;2023-12-22T03:41:26;96131.09;;;3.80;77.40
55066;BME280;40964;42.114;24.220;2023-12-22T03:43:52;96127.69;;;3.80;77.08
55066;BME280;40964;42.114;24.220;2023-12-22T03:46:17;96120.25;;;3.83;77.09
55066;BME280;40964;42.114;24.220;2023-12-22T03:48:43;96119.22;;;3.84;77.53
55066;BME280;40964;42.114;24.220;2023-12-22T03:51:09;96120.97;;;3.90;77.09
55066;BME280;40964;42.114;24.220;2023-12-22T03:53:37;96120.81;;;3.85;75.81
55066;BME280;40964;42.114;24.220;2023-12-22T03:56:02;96110.75;;;3.95;75.06
55066;BME280;40964;42.114;24.220;2023-12-22T03:58:28;96104.25;;;4.05;74.44
55066;BME280;40964;42.114;24.220;2023-12-22T04:00:55;96114.47;;;4.18;72.37
55066;BME280;40964;42.114;24.220;2023-12-22T04:03:20;96124.59;;;4.26;72.92
55066;BME280;40964;42.114;24.220;2023-12-22T04:05:46;96126.28;;;3.77;78.07
55066;BME280;40964;42.114;24.220;2023-12-22T04:08:11;96130.59;;;3.40;79.95
55066;BME280;40964;42.114;24.220;2023-12-22T04:10:37;96127.13;;;3.28;81.30
55066;BME280;40964;42.114;24.220;2023-12-22T04:13:02;96119.78;;;3.18;81.71
55066;BME280;40964;42.114;24.220;2023-12-22T04:15:27;96119.28;;;3.03;82.38
55066;BME280;40964;42.114;24.220;2023-12-22T04:17:53;96116.00;;;2.89;82.86
55066;BME280;40964;42.114;24.220;2023-12-22T04:20:18;96116.94;;;2.95;82.52
55066;BME280;40964;42.114;24.220;2023-12-22T04:22:44;96121.72;;;2.98;82.64
55066;BME280;40964;42.114;24.220;2023-12-22T04:25:09;96125.28;;;3.03;82.05
55066;BME280;40964;42.114;24.220;2023-12-22T04:27:35;96112.25;;;3.10;81.98
55066;BME280;40964;42.114;24.220;2023-12-22T04:30:01;96119.03;;;3.11;81.54
55066;BME280;40964;42.114;24.220;2023-12-22T04:32:26;96112.63;;;3.13;82.21
55066;BME280;40964;42.114;24.220;2023-12-22T04:34:52;96110.41;;;3.17;82.15
55066;BME280;40964;42.114;24.220;2023-12-22T04:37:17;96103.50;;;3.29;80.42
55066;BME280;40964;42.114;24.220;2023-12-22T04:39:43;96075.06;;;3.16;79.70
55066;BME280;40964;42.114;24.220;2023-12-22T04:42:08;96102.25;;;3.38;80.26
55066;BME280;40964;42.114;24.220;2023-12-22T04:44:34;96087.72;;;3.31;80.30
55066;BME280;40964;42.114;24.220;2023-12-22T04:46:59;96094.03;;;3.41;79.37
55066;BME280;40964;42.114;24.220;2023-12-22T04:49:25;96098.94;;;3.50;79.16
55066;BME280;40964;42.114;24.220;2023-12-22T04:51:50;96097.03;;;3.63;78.73
55066;BME280;40964;42.114;24.220;2023-12-22T04:54:16;96092.72;;;3.76;77.60
55066;BME280;40964;42.114;24.220;2023-12-22T04:56:41;96075.13;;;3.78;77.58
55066;BME280;40964;42.114;24.220;2023-12-22T04:59:07;96078.00;;;3.88;76.58
55066;BME280;40964;42.114;24.220;2023-12-22T05:01:33;96076.94;;;3.95;77.31
55066;BME280;40964;42.114;24.220;2023-12-22T05:03:58;96070.56;;;4.10;76.49
55066;BME280;40964;42.114;24.220;2023-12-22T05:06:24;96064.47;;;4.16;75.28
55066;BME280;40964;42.114;24.220;2023-12-22T05:08:49;96067.81;;;4.23;74.77
55066;BME280;40964;42.114;24.220;2023-12-22T05:11:14;96056.72;;;4.27;74.31
55066;BME280;40964;42.114;24.220;2023-12-22T05:13:40;96042.06;;;4.33;73.80
55066;BME280;40964;42.114;24.220;2023-12-22T05:16:07;96047.69;;;4.30;75.56
55066;BME280;40964;42.114;24.220;2023-12-22T05:18:32;96056.09;;;4.32;75.52
55066;BME280;40964;42.114;24.220;2023-12-22T05:20:58;96049.88;;;4.33;76.28
55066;BME280;40964;42.114;24.220;2023-12-22T05:23:23;96058.97;;;4.42;76.50
55066;BME280;40964;42.114;24.220;2023-12-22T05:25:49;96051.56;;;4.39;76.79
55066;BME280;40964;42.114;24.220;2023-12-22T05:28:14;96059.97;;;4.41;77.15
55066;BME280;40964;42.114;24.220;2023-12-22T05:30:39;96060.16;;;4.40;76.78
55066;BME280;40964;42.114;24.220;2023-12-22T05:33:05;96072.19;;;4.41;75.98
55066;BME280;40964;42.114;24.220;2023-12-22T05:35:31;96079.91;;;4.47;75.02
55066;BME280;40964;42.114;24.220;2023-12-22T05:37:56;96089.81;;;4.39;75.01
55066;BME280;40964;42.114;24.220;2023-12-22T05:40:22;96095.13;;;3.95;77.45
55066;BME280;40964;42.114;24.220;2023-12-22T05:45:37;96110.38;;;3.24;81.66
55066;BME280;40964;42.114;24.220;2023-12-22T05:48:03;96115.19;;;3.20;81.91
55066;BME280;40964;42.114;24.220;2023-12-22T05:50:29;96111.75;;;3.26;82.36
55066;BME280;40964;42.114;24.220;2023-12-22T05:52:54;96110.25;;;3.37;82.02
55066;BME280;40964;42.114;24.220;2023-12-22T05:55:20;96110.84;;;3.39;81.21
55066;BME280;40964;42.114;24.220;2023-12-22T05:57:45;96115.22;;;3.38;80.76
55066;BME280;40964;42.114;24.220;2023-12-22T06:00:12;96121.63;;;3.42;81.10
55066;BME280;40964;42.114;24.220;2023-12-22T06:02:37;96112.72;;;3.50;81.70
55066;BME280;40964;42.114;24.220;2023-12-22T06:05:03;96100.06;;;3.60;81.41
55066;BME280;40964;42.114;24.220;2023-12-22T06:07:29;96101.44;;;3.63;81.10
55066;BME280;40964;42.114;24.220;2023-12-22T06:09:54;96107.00;;;3.66;81.37
55066;BME280;40964;42.114;24.220;2023-12-22T06:12:20;96096.97;;;3.70;81.55
55066;BME280;40964;42.114;24.220;2023-12-22T06:14:45;96093.09;;;3.79;80.93
55066;BME280;40964;42.114;24.220;2023-12-22T06:17:11;96080.44;;;3.83;81.28
55066;BME280;40964;42.114;24.220;2023-12-22T06:19:36;96090.34;;;3.92;81.25
55066;BME280;40964;42.114;24.220;2023-12-22T06:22:02;96085.53;;;3.96;81.52
55066;BME280;40964;42.114;24.220;2023-12-22T06:24:27;96075.63;;;4.05;82.35
55066;BME280;40964;42.114;24.220;2023-12-22T06:26:53;96076.69;;;4.15;82.36
55066;BME280;40964;42.114;24.220;2023-12-22T06:29:19;96075.50;;;4.30;82.84
55066;BME280;40964;42.114;24.220;2023-12-22T06:31:44;96064.97;;;4.43;82.31
55066;BME280;40964;42.114;24.220;2023-12-22T06:34:09;96066.59;;;4.55;81.96
55066;BME280;40964;42.114;24.220;2023-12-22T06:36:35;96067.63;;;4.66;81.56
55066;BME280;40964;42.114;24.220;2023-12-22T06:39:00;96069.03;;;4.69;81.22
55066;BME280;40964;42.114;24.220;2023-12-22T06:41:28;96072.75;;;4.73;81.28
55066;BME280;40964;42.114;24.220;2023-12-22T06:43:54;96072.44;;;4.81;80.93
55066;BME280;40964;42.114;24.220;2023-12-22T06:46:22;96081.63;;;4.83;82.20
55066;BME280;40964;42.114;24.220;2023-12-22T06:48:48;96088.78;;;4.88;81.12
55066;BME280;40964;42.114;24.220;2023-12-22T06:53:50;96092.66;;;4.97;80.70
55066;BME280;40964;42.114;24.220;2023-12-22T06:56:29;96088.41;;;4.84;79.54
55066;BME280;40964;42.114;24.220;2023-12-22T06:58:56;96099.44;;;4.98;78.98
55066;BME280;40964;42.114;24.220;2023-12-22T07:01:28;96106.78;;;4.90;78.28
55066;BME280;40964;42.114;24.220;2023-12-22T07:03:54;96107.50;;;4.97;78.76
55066;BME280;40964;42.114;24.220;2023-12-22T07:06:21;96104.56;;;5.05;78.69
55066;BME280;40964;42.114;24.220;2023-12-22T07:09:47;96105.16;;;5.19;79.40
55066;BME280;40964;42.114;24.220;2023-12-22T07:12:00;96102.69;;;5.24;78.69
55066;BME280;40964;42.114;24.220;2023-12-22T07:14:26;96102.94;;;5.34;79.87
55066;BME280;40964;42.114;24.220;2023-12-22T07:16:52;96098.41;;;5.41;80.21
55066;BME280;40964;42.114;24.220;2023-12-22T07:19:17;96089.78;;;5.52;81.06
55066;BME280;40964;42.114;24.220;2023-12-22T07:21:42;96102.47;;;5.25;81.55
55066;BME280;40964;42.114;24.220;2023-12-22T07:24:08;96088.72;;;5.18;81.55
55066;BME280;40964;42.114;24.220;2023-12-22T07:26:33;96070.94;;;5.15;81.27
55066;BME280;40964;42.114;24.220;2023-12-22T07:28:59;96093.59;;;5.15;81.90
55066;BME280;40964;42.114;24.220;2023-12-22T07:31:24;96095.81;;;4.88;81.81
55066;BME280;40964;42.114;24.220;2023-12-22T07:33:50;96097.41;;;5.00;80.10
55066;BME280;40964;42.114;24.220;2023-12-22T07:36:17;96101.03;;;4.99;80.35
55066;BME280;40964;42.114;24.220;2023-12-22T07:38:43;96061.22;;;4.69;79.95
55066;BME280;40964;42.114;24.220;2023-12-22T07:41:09;96096.72;;;4.63;81.49
55066;BME280;40964;42.114;24.220;2023-12-22T07:43:35;96094.84;;;4.70;81.95
55066;BME280;40964;42.114;24.220;2023-12-22T07:46:00;96100.06;;;4.82;81.52
55066;BME280;40964;42.114;24.220;2023-12-22T07:48:26;96106.44;;;4.86;81.17
55066;BME280;40964;42.114;24.220;2023-12-22T07:50:51;96095.56;;;4.89;81.96
55066;BME280;40964;42.114;24.220;2023-12-22T07:53:16;96098.03;;;4.84;82.24
55066;BME280;40964;42.114;24.220;2023-12-22T07:55:43;96103.38;;;4.89;80.63
55066;BME280;40964;42.114;24.220;2023-12-22T07:58:09;96121.69;;;5.12;80.71
55066;BME280;40964;42.114;24.220;2023-12-22T08:00:34;96132.72;;;5.26;79.96
55066;BME280;40964;42.114;24.220;2023-12-22T08:03:00;96123.88;;;5.27;79.64
55066;BME280;40964;42.114;24.220;2023-12-22T08:05:26;96136.50;;;5.54;78.70
55066;BME280;40964;42.114;24.220;2023-12-22T08:07:51;96137.31;;;5.78;78.07
55066;BME280;40964;42.114;24.220;2023-12-22T08:10:17;96137.56;;;6.00;78.65
55066;BME280;40964;42.114;24.220;2023-12-22T08:12:42;96126.44;;;6.16;79.03
55066;BME280;40964;42.114;24.220;2023-12-22T08:15:08;96122.22;;;6.38;79.60
55066;BME280;40964;42.114;24.220;2023-12-22T08:17:36;96122.63;;;6.47;80.37
55066;BME280;40964;42.114;24.220;2023-12-22T08:20:03;96121.88;;;6.63;79.92
55066;BME280;40964;42.114;24.220;2023-12-22T08:22:29;96126.19;;;6.69;78.33
55066;BME280;40964;42.114;24.220;2023-12-22T08:24:54;96117.75;;;6.79;76.26
55066;BME280;40964;42.114;24.220;2023-12-22T08:27:20;96115.56;;;6.88;72.99
55066;BME280;40964;42.114;24.220;2023-12-22T08:29:45;96123.44;;;7.04;73.94
55066;BME280;40964;42.114;24.220;2023-12-22T08:32:11;96124.88;;;7.12;74.47
55066;BME280;40964;42.114;24.220;2023-12-22T08:34:36;96126.09;;;7.21;75.51
55066;BME280;40964;42.114;24.220;2023-12-22T08:37:02;96126.31;;;7.20;76.54
55066;BME280;40964;42.114;24.220;2023-12-22T08:39:27;96126.00;;;7.16;77.63
55066;BME280;40964;42.114;24.220;2023-12-22T08:41:53;96122.59;;;7.16;77.49
55066;BME280;40964;42.114;24.220;2023-12-22T08:44:19;96121.41;;;7.23;75.94
55066;BME280;40964;42.114;24.220;2023-12-22T08:46:44;96115.41;;;7.39;76.62
55066;BME280;40964;42.114;24.220;2023-12-22T08:49:10;96089.09;;;7.29;78.18
55066;BME280;40964;42.114;24.220;2023-12-22T08:51:35;96126.56;;;7.35;77.71
55066;BME280;40964;42.114;24.220;2023-12-22T08:54:01;96114.44;;;7.29;77.61
55066;BME280;40964;42.114;24.220;2023-12-22T08:56:26;96122.22;;;7.40;76.72
55066;BME280;40964;42.114;24.220;2023-12-22T08:58:53;96126.97;;;7.44;77.55
55066;BME280;40964;42.114;24.220;2023-12-22T09:01:20;96119.59;;;7.40;77.26
55066;BME280;40964;42.114;24.220;2023-12-22T09:03:47;96125.06;;;7.39;78.68
55066;BME280;40964;42.114;24.220;2023-12-22T09:06:16;96125.22;;;7.32;79.79
55066;BME280;40964;42.114;24.220;2023-12-22T09:08:42;96123.63;;;7.15;77.27
55066;BME280;40964;42.114;24.220;2023-12-22T09:11:08;96127.97;;;7.26;77.83
55066;BME280;40964;42.114;24.220;2023-12-22T09:13:34;96124.91;;;7.29;78.67
55066;BME280;40964;42.114;24.220;2023-12-22T09:16:01;96138.78;;;7.29;77.68
55066;BME280;40964;42.114;24.220;2023-12-22T09:18:27;96137.25;;;7.17;78.94
55066;BME280;40964;42.114;24.220;2023-12-22T11:02:47;96108.88;;;7.92;100.00
55066;BME280;40964;42.114;24.220;2023-12-22T11:05:15;96092.44;;;7.97;100.00
55066;BME280;40964;42.114;24.220;2023-12-22T11:07:48;96080.34;;;8.13;98.04
55066;BME280;40964;42.114;24.220;2023-12-22T11:10:19;96073.56;;;8.17;98.41
55066;BME280;40964;42.114;24.220;2023-12-22T11:12:46;96046.91;;;8.20;97.19
55066;BME280;40964;42.114;24.220;2023-12-22T11:15:12;96035.16;;;8.22;98.41
55066;BME280;40964;42.114;24.220;2023-12-22T11:17:39;96017.13;;;8.26;97.49
55066;BME280;40964;42.114;24.220;2023-12-22T11:20:09;96000.94;;;8.29;98.26
55066;BME280;40964;42.114;24.220;2023-12-22T11:22:36;95983.94;;;8.32;97.47
55066;BME280;40964;42.114;24.220;2023-12-22T11:25:04;95982.19;;;8.37;96.74
55066;BME280;40964;42.114;24.220;2023-12-22T11:27:33;95985.38;;;8.44;93.45
55066;BME280;40964;42.114;24.220;2023-12-22T11:30:00;95989.97;;;8.54;83.30
55066;BME280;40964;42.114;24.220;2023-12-22T11:32:28;95998.78;;;8.75;89.42
55066;BME280;40964;42.114;24.220;2023-12-22T11:34:54;95981.84;;;8.88;89.79
55066;BME280;40964;42.114;24.220;2023-12-22T11:37:21;95986.97;;;9.04;90.35
55066;BME280;40964;42.114;24.220;2023-12-22T11:39:47;95976.81;;;9.13;86.83
55066;BME280;40964;42.114;24.220;2023-12-22T11:42:18;95973.72;;;9.21;81.59
55066;BME280;40964;42.114;24.220;2023-12-22T11:44:45;95978.53;;;9.34;80.89
55066;BME280;40964;42.114;24.220;2023-12-22T11:47:10;95960.47;;;9.43;82.28
55066;BME280;40964;42.114;24.220;2023-12-22T11:49:38;95965.00;;;9.53;83.75
55066;BME280;40964;42.114;24.220;2023-12-22T11:52:14;95968.97;;;9.60;82.06
55066;BME280;40964;42.114;24.220;2023-12-22T11:55:07;95972.16;;;9.67;83.25
55066;BME280;40964;42.114;24.220;2023-12-22T11:57:39;95972.47;;;9.71;85.87
55066;BME280;40964;42.114;24.220;2023-12-22T12:00:08;95967.59;;;9.48;88.23
55066;BME280;40964;42.114;24.220;2023-12-22T12:02:35;95960.88;;;9.25;83.23
55066;BME280;40964;42.114;24.220;2023-12-22T12:05:04;95978.75;;;9.28;83.81
55066;BME280;40964;42.114;24.220;2023-12-22T12:10:13;95993.25;;;9.35;84.81
55066;BME280;40964;42.114;24.220;2023-12-22T12:12:39;95989.94;;;9.55;83.66
55066;BME280;40964;42.114;24.220;2023-12-22T12:15:10;96003.66;;;9.67;83.77
55066;BME280;40964;42.114;24.220;2023-12-22T12:17:41;96008.66;;;9.69;84.29
55066;BME280;40964;42.114;24.220;2023-12-22T12:20:09;96011.31;;;9.74;82.84
55066;BME280;40964;42.114;24.220;2023-12-22T12:22:35;96035.78;;;9.85;83.61
55066;BME280;40964;42.114;24.220;2023-12-22T12:25:07;96026.13;;;9.95;84.02
55066;BME280;40964;42.114;24.220;2023-12-22T12:27:34;96025.84;;;9.92;83.81
55066;BME280;40964;42.114;24.220;2023-12-22T12:30:10;96042.59;;;9.81;83.42
55066;BME280;40964;42.114;24.220;2023-12-22T12:32:36;96048.38;;;9.83;83.75
55066;BME280;40964;42.114;24.220;2023-12-22T12:35:05;96055.47;;;9.82;83.64
55066;BME280;40964;42.114;24.220;2023-12-22T12:37:31;96043.88;;;9.78;84.12
55066;BME280;40964;42.114;24.220;2023-12-22T12:39:58;96053.41;;;9.89;84.50
55066;BME280;40964;42.114;24.220;2023-12-22T12:42:29;96034.72;;;9.86;84.41
55066;BME280;40964;42.114;24.220;2023-12-22T12:44:57;96051.53;;;9.85;85.25
55066;BME280;40964;42.114;24.220;2023-12-22T12:47:23;96055.00;;;9.90;84.93
55066;BME280;40964;42.114;24.220;2023-12-22T12:50:01;96036.91;;;9.99;84.78
55066;BME280;40964;42.114;24.220;2023-12-22T12:52:27;96030.63;;;10.05;84.50
55066;BME280;40964;42.114;24.220;2023-12-22T12:54:53;96035.66;;;10.07;83.86
55066;BME280;40964;42.114;24.220;2023-12-22T12:57:18;96045.06;;;9.98;83.45
55066;BME280;40964;42.114;24.220;2023-12-22T12:59:48;96058.94;;;9.93;83.08
55066;BME280;40964;42.114;24.220;2023-12-22T13:02:17;96051.00;;;9.83;83.42
55066;BME280;40964;42.114;24.220;2023-12-22T13:04:43;96058.88;;;9.83;83.61
55066;BME280;40964;42.114;24.220;2023-12-22T13:07:09;96049.44;;;9.82;84.05
55066;BME280;40964;42.114;24.220;2023-12-22T13:09:38;96045.53;;;9.89;83.90
55066;BME280;40964;42.114;24.220;2023-12-22T13:12:04;96038.88;;;9.77;84.71
55066;BME280;40964;42.114;24.220;2023-12-22T13:14:30;96043.91;;;9.83;83.42
55066;BME280;40964;42.114;24.220;2023-12-22T13:16:57;96046.28;;;9.80;84.14
55066;BME280;40964;42.114;24.220;2023-12-22T13:19:23;96043.91;;;9.83;84.32
55066;BME280;40964;42.114;24.220;2023-12-22T13:21:53;96040.78;;;9.86;83.77
55066;BME280;40964;42.114;24.220;2023-12-22T13:24:19;96041.56;;;9.87;82.39
55066;BME280;40964;42.114;24.220;2023-12-22T13:26:45;96055.78;;;9.91;81.77
55066;BME280;40964;42.114;24.220;2023-12-22T13:29:11;96061.03;;;9.91;81.26
55066;BME280;40964;42.114;24.220;2023-12-22T13:31:39;96059.94;;;9.87;81.89
55066;BME280;40964;42.114;24.220;2023-12-22T13:34:09;96058.56;;;9.79;81.85
55066;BME280;40964;42.114;24.220;2023-12-22T13:36:35;96052.31;;;9.80;82.69
55066;BME280;40964;42.114;24.220;2023-12-22T13:39:02;96053.31;;;9.79;83.00
55066;BME280;40964;42.114;24.220;2023-12-22T13:41:52;96054.03;;;9.64;83.30
55066;BME280;40964;42.114;24.220;2023-12-22T13:44:17;96044.06;;;9.66;83.45
55066;BME280;40964;42.114;24.220;2023-12-22T13:46:43;96045.19;;;9.76;83.08
55066;BME280;40964;42.114;24.220;2023-12-22T13:49:09;96061.19;;;9.74;82.96
55066;BME280;40964;42.114;24.220;2023-12-22T13:51:42;96059.34;;;9.75;82.56
55066;BME280;40964;42.114;24.220;2023-12-22T13:54:08;96055.41;;;9.72;82.41
55066;BME280;40964;42.114;24.220;2023-12-22T13:56:35;96065.34;;;9.70;82.68
55066;BME280;40964;42.114;24.220;2023-12-22T13:59:04;96074.78;;;9.66;83.34
55066;BME280;40964;42.114;24.220;2023-12-22T14:01:29;96076.56;;;9.60;83.47
55066;BME280;40964;42.114;24.220;2023-12-22T14:03:55;96087.06;;;9.55;84.00
55066;BME280;40964;42.114;24.220;2023-12-22T14:06:23;96093.28;;;9.49;84.49
55066;BME280;40964;42.114;24.220;2023-12-22T14:08:49;96105.03;;;9.42;85.14
55066;BME280;40964;42.114;24.220;2023-12-22T14:11:14;96110.28;;;9.42;85.31
55066;BME280;40964;42.114;24.220;2023-12-22T14:13:40;96118.38;;;9.35;85.98
55066;BME280;40964;42.114;24.220;2023-12-22T14:16:06;96119.41;;;9.34;87.07
55066;BME280;40964;42.114;24.220;2023-12-22T14:18:33;96123.28;;;9.26;87.59
55066;BME280;40964;42.114;24.220;2023-12-22T14:20:58;96129.47;;;9.15;88.10
55066;BME280;40964;42.114;24.220;2023-12-22T14:23:24;96135.94;;;9.07;88.40
55066;BME280;40964;42.114;24.220;2023-12-22T14:25:50;96152.94;;;9.00;89.18
55066;BME280;40964;42.114;24.220;2023-12-22T14:28:16;96158.63;;;8.97;88.98
55066;BME280;40964;42.114;24.220;2023-12-22T14:30:41;96156.78;;;8.92;88.69
55066;BME280;40964;42.114;24.220;2023-12-22T14:33:07;96170.34;;;8.89;88.56
55066;BME280;40964;42.114;24.220;2023-12-22T14:35:33;96178.13;;;8.57;88.25
55066;BME280;40964;42.114;24.220;2023-12-22T14:37:58;96207.84;;;8.46;86.68
55066;BME280;40964;42.114;24.220;2023-12-22T14:40:24;96210.22;;;8.31;87.88
55066;BME280;40964;42.114;24.220;2023-12-22T14:42:50;96241.41;;;8.15;86.11
55066;BME280;40964;42.114;24.220;2023-12-22T14:45:16;96235.47;;;8.03;87.58
55066;BME280;40964;42.114;24.220;2023-12-22T14:47:41;96256.81;;;8.12;86.11